Time;durP1;ratioP1;P1;durP2;ratioP2;P2;SDS_P1;SDS_P2;PMS_P1;PMS_P2;Temp;Humidity;BMP_temperature;BMP_pressure;BME280_temperature;BME280_humidity;BME280_pressure;Samples;Min_cycle;Max_cycle;Signal;HPM_P1;HPM_P2
2023/12/22 00:01:22;;;;;;;38.78;22.40;;;;;;;-142.57;100.00;55733.34;4947907;29;20086;-77
2023/12/22 00:03:47;;;;;;;36.28;21.13;;;;;;;-142.57;100.00;55701.03;4947672;29;20270;-78
2023/12/22 00:06:13;;;;;;;33.40;19.98;;;;;;;-142.57;100.00;55682.84;4950937;29;20086;-77
2023/12/22 00:08:38;;;;;;;31.65;18.35;;;;;;;-142.57;100.00;55676.78;4937556;29;20439;-78
2023/12/22 00:11:04;;;;;;;26.67;15.38;;;;;;;-142.57;100.00;55660.63;4955497;29;20414;-79
2023/12/22 00:13:30;;;;;;;27.65;16.70;;;;;;;-142.57;100.00;55694.97;4931409;29;20039;-78
2023/12/22 00:15:55;;;;;;;36.00;16.23;;;;;;;-142.57;100.00;55676.78;4947950;29;20062;-78
2023/12/22 00:18:21;;;;;;;27.38;15.68;;;;;;;-142.57;100.00;55697.00;4947417;29;20039;-79
2023/12/22 00:20:46;;;;;;;29.23;15.80;;;;;;;-142.57;100.00;55676.78;4947895;29;20129;-79
2023/12/22 00:23:12;;;;;;;30.48;17.73;;;;;;;-142.57;100.00;55684.88;4953103;29;20043;-79
2023/12/22 00:25:37;;;;;;;31.75;17.52;;;;;;;-142.57;100.00;55668.69;4955198;29;20047;-77
2023/12/22 00:28:03;;;;;;;27.13;15.55;;;;;;;-142.57;100.00;55690.94;4949505;29;20110;-79
2023/12/22 00:30:28;;;;;;;26.80;15.82;;;;;;;-142.57;100.00;55725.28;4947320;29;20094;-79
2023/12/22 00:32:54;;;;;;;25.80;15.52;;;;;;;-142.57;100.00;55729.31;4947409;29;20174;-77
2023/12/22 00:35:19;;;;;;;30.02;16.38;;;;;;;-142.57;100.00;55755.59;4947482;29;20105;-80
2023/12/22 00:37:45;;;;;;;25.55;15.75;;;;;;;-142.57;100.00;55757.59;4954158;29;20542;-80
2023/12/22 00:40:11;;;;;;;28.77;16.20;;;;;;;-142.57;100.00;55789.94;4954417;29;20035;-80
2023/12/22 00:42:36;;;;;;;24.20;12.80;;;;;;;-142.57;100.00;55810.13;4955050;29;20035;-79
2023/12/22 00:45:02;;;;;;;20.90;12.60;;;;;;;-142.57;100.00;55834.38;4949076;29;20386;-78
2023/12/22 00:47:28;;;;;;;21.52;12.38;;;;;;;-142.57;100.00;55838.44;4929863;29;20114;-77
2023/12/22 00:49:53;;;;;;;25.08;11.68;;;;;;;-142.57;100.00;55866.72;4947737;29;21319;-79
2023/12/22 00:52:19;;;;;;;24.55;12.85;;;;;;;-142.57;100.00;55892.97;4947685;29;20046;-78
2023/12/22 00:54:45;;;;;;;19.70;11.05;;;;;;;-142.57;100.00;55890.97;4953504;29;20038;-78
2023/12/22 00:57:11;;;;;;;20.08;11.02;;;;;;;-142.57;100.00;55963.72;4949658;29;20122;-78
2023/12/22 00:59:37;;;;;;;15.10;9.48;;;;;;;-142.57;100.00;55880.84;4948046;29;20049;-78
2023/12/22 01:02:02;;;;;;;18.30;9.50;;;;;;;-142.57;100.00;55913.19;4946792;29;20110;-79
2023/12/22 01:04:28;;;;;;;16.70;9.35;;;;;;;-142.57;100.00;55903.09;4947289;29;20039;-77
2023/12/22 01:06:53;;;;;;;14.23;8.65;;;;;;;-142.57;100.00;55981.88;4951160;29;20458;-79
2023/12/22 01:09:19;;;;;;;16.67;9.48;;;;;;;-142.57;100.00;55989.97;4953537;29;20442;-80
2023/12/22 01:11:45;;;;;;;14.73;8.30;;;;;;;-142.57;100.00;55983.91;4953293;29;20046;-78
2023/12/22 01:14:13;;;;;;;13.35;7.70;;;;;;;-142.57;100.00;55963.72;4947553;28;20088;-79
2023/12/22 01:16:39;;;;;;;11.23;6.07;;;;;;;-142.57;100.00;55987.94;4947638;28;20047;-78
2023/12/22 01:19:05;;;;;;;14.07;7.15;;;;;;;-142.57;100.00;56020.28;4946816;29;20035;-77
2023/12/22 01:21:30;;;;;;;16.05;6.07;;;;;;;-142.57;100.00;56064.75;4947924;28;20392;-77
2023/12/22 01:23:56;;;;;;;8.18;5.82;;;;;;;-142.57;100.00;56101.13;4953445;29;20071;-77
2023/12/22 01:26:22;;;;;;;8.23;5.10;;;;;;;-142.57;100.00;56123.34;4894066;28;20043;-79
2023/12/22 01:28:47;;;;;;;9.00;4.50;;;;;;;-142.57;100.00;56175.88;4905048;29;20123;-79
2023/12/22 01:31:13;;;;;;;8.27;4.68;;;;;;;-142.57;100.00;56177.91;4900175;29;20050;-79
2023/12/22 01:33:38;;;;;;;6.72;4.07;;;;;;;-142.57;100.00;56190.03;4869332;29;20181;-83
2023/12/22 01:36:04;;;;;;;8.38;4.90;;;;;;;-142.57;100.00;56200.13;4883125;29;20042;-78
2023/12/22 01:38:30;;;;;;;13.55;6.78;;;;;;;-142.57;100.00;56194.06;4888386;29;20067;-78
2023/12/22 01:40:55;;;;;;;11.80;7.38;;;;;;;-142.57;100.00;56190.03;4873668;29;20047;-79
2023/12/22 01:43:21;;;;;;;15.80;7.95;;;;;;;-142.57;100.00;56181.94;4866932;29;20054;-80
2023/12/22 01:45:58;;;;;;;10.65;7.03;;;;;;;-142.57;100.00;56194.06;4886957;28;20043;-80
2023/12/22 01:48:25;;;;;;;11.40;6.20;;;;;;;-142.57;100.00;56185.97;4889170;29;20046;-76
2023/12/22 01:50:54;;;;;;;11.70;6.10;;;;;;;-142.57;100.00;56208.22;4884192;28;20714;-80
2023/12/22 01:53:20;;;;;;;9.27;5.53;;;;;;;-142.57;100.00;56226.41;4880967;29;20593;-77
2023/12/22 01:55:48;;;;;;;13.00;5.15;;;;;;;-142.57;100.00;56246.59;4917884;29;20074;-79
2023/12/22 01:58:14;;;;;;;7.63;4.78;;;;;;;-142.57;100.00;56315.31;4943361;28;20042;-78
2023/12/22 02:00:40;;;;;;;6.10;3.80;;;;;;;-142.57;100.00;56400.19;4887604;28;20031;-80
2023/12/22 02:03:06;;;;;;;7.20;3.45;;;;;;;-142.57;100.00;56355.72;4886528;29;20090;-79
2023/12/22 02:05:34;;;;;;;4.68;2.78;;;;;;;-142.57;100.00;56406.25;4923804;29;20051;-77
2023/12/22 02:08:00;;;;;;;6.47;1.90;;;;;;;-142.57;100.00;56481.03;4926579;29;20023;-77
2023/12/22 02:10:26;;;;;;;2.97;1.90;;;;;;;-142.57;100.00;56495.19;4926040;29;20538;-79
2023/12/22 02:12:51;;;;;;;1.80;1.30;;;;;;;-142.57;100.00;56610.38;4923305;29;20533;-78
2023/12/22 02:15:17;;;;;;;3.67;1.13;;;;;;;-142.57;100.00;56666.97;4888717;29;20490;-79
2023/12/22 02:18:04;;;;;;;4.15;1.25;;;;;;;-142.57;100.00;56751.84;4884765;29;20039;-79
2023/12/22 02:20:31;;;;;;;6.70;1.30;;;;;;;-142.57;95.63;56858.97;4883986;29;20039;-76
2023/12/22 02:22:57;;;;;;;2.70;1.42;;;;;;;-142.57;92.26;56998.41;4891059;29;20039;-79
2023/12/22 02:25:22;;;;;;;2.70;0.80;;;;;;;-142.57;92.21;56982.25;4889106;29;20102;-76
2023/12/22 02:27:50;;;;;;;5.40;1.10;;;;;;;-142.57;86.90;57050.97;4885508;29;20075;-76
2023/12/22 02:30:31;;;;;;;6.68;1.02;;;;;;;-142.57;74.44;57139.91;4871378;29;20039;-81
2023/12/22 02:33:00;;;;;;;2.28;1.00;;;;;;;-142.57;71.95;57180.34;4878105;29;20090;-79
2023/12/22 02:35:28;;;;;;;1.90;1.00;;;;;;;-142.57;70.32;57164.16;4885448;29;20039;-79
2023/12/22 02:37:57;;;;;;;1.95;0.80;;;;;;;-142.57;67.62;57200.53;4919681;28;20019;-80
2023/12/22 02:40:24;;;;;;;2.45;1.17;;;;;;;-142.57;66.52;57236.94;4906041;29;20035;-79
2023/12/22 02:42:50;;;;;;;3.35;0.82;;;;;;;-142.57;59.56;57311.72;4895906;29;20090;-82
2023/12/22 02:45:18;;;;;;;4.68;1.02;;;;;;;-142.57;57.70;57285.44;4891080;29;20045;-81
2023/12/22 02:47:44;;;;;;;1.48;0.80;;;;;;;-142.57;56.79;57305.66;4891144;29;20039;-80
2023/12/22 02:50:11;;;;;;;3.67;1.23;;;;;;;-142.57;54.40;57378.41;4890410;29;20043;-79
2023/12/22 02:52:37;;;;;;;1.73;0.98;;;;;;;-142.57;52.96;57370.34;4873397;29;20054;-82
2023/12/22 02:55:03;;;;;;;2.10;1.10;;;;;;;-142.57;48.69;57430.97;4912644;29;20047;-80
2023/12/22 02:57:29;;;;;;;1.75;1.05;;;;;;;-142.57;48.25;57422.88;4885598;29;20106;-80
2023/12/22 02:59:56;;;;;;;7.55;1.40;;;;;;;-142.57;47.42;57479.50;4889018;29;20258;-81
2023/12/22 03:02:22;;;;;;;5.35;1.00;;;;;;;-142.57;46.92;57507.78;4890541;29;20043;-81
2023/12/22 03:04:47;;;;;;;5.10;1.38;;;;;;;-142.57;46.39;57519.91;4888078;29;20047;-79
2023/12/22 03:07:13;;;;;;;3.97;0.95;;;;;;;-142.57;46.45;57449.16;4894998;29;20047;-80
2023/12/22 03:09:39;;;;;;;2.03;0.90;;;;;;;-142.57;46.81;57495.66;4894964;29;20031;-81
2023/12/22 03:12:07;;;;;;;1.20;0.80;;;;;;;-142.57;46.82;57479.50;4896005;29;20039;-79
2023/12/22 03:14:33;;;;;;;3.30;1.00;;;;;;;-142.57;47.45;57483.53;4892118;29;20031;-81
2023/12/22 03:17:03;;;;;;;1.90;0.95;;;;;;;-142.57;47.54;57479.50;4890482;29;20039;-81
2023/12/22 03:19:29;;;;;;;1.48;0.75;;;;;;;-142.57;47.70;57467.38;4890751;29;20043;-83
2023/12/22 03:21:56;;;;;;;2.30;1.27;;;;;;;-142.57;47.56;57483.53;4874806;29;20399;-80
2023/12/22 03:24:23;;;;;;;2.53;1.00;;;;;;;-142.57;47.56;57489.59;4906417;29;20058;-82
2023/12/22 03:26:51;;;;;;;1.70;0.90;;;;;;;-142.57;47.76;57459.28;4953535;29;20118;-83
2023/12/22 03:29:17;;;;;;;8.23;0.90;;;;;;;-142.57;47.98;57426.94;4945518;29;20046;-80
2023/12/22 03:31:44;;;;;;;1.40;1.00;;;;;;;-142.57;48.15;57422.88;4945297;29;20117;-81
2023/12/22 03:34:09;;;;;;;1.48;1.08;;;;;;;-142.57;48.27;57404.69;4947701;29;20561;-81
2023/12/22 03:36:35;;;;;;;4.07;1.15;;;;;;;-142.57;49.06;57376.41;4945340;29;20134;-81
2023/12/22 03:39:01;;;;;;;1.95;0.80;;;;;;;-142.57;48.84;57350.13;4933604;29;20038;-84
2023/12/22 03:41:27;;;;;;;4.63;1.20;;;;;;;-142.57;48.97;57366.28;4897782;29;20039;-83
2023/12/22 03:43:52;;;;;;;3.83;1.23;;;;;;;-142.57;48.18;57406.72;4888558;29;20102;-80
2023/12/22 03:46:18;;;;;;;2.67;1.00;;;;;;;-142.57;47.58;57370.34;4893051;29;20043;-81
2023/12/22 03:48:47;;;;;;;3.92;0.95;;;;;;;-142.57;46.90;57398.63;4894733;28;20854;-85
2023/12/22 03:51:14;;;;;;;1.40;0.82;;;;;;;-142.57;47.14;57364.28;4894239;29;20046;-80
2023/12/22 03:53:40;;;;;;;1.70;0.90;;;;;;;-142.57;45.96;57412.78;4900163;29;21537;-80
2023/12/22 03:56:09;;;;;;;1.45;0.80;;;;;;;-142.57;45.58;57453.22;4903322;29;20106;-81
2023/12/22 03:58:38;;;;;;;8.40;1.15;;;;;;;-142.57;45.57;57443.09;4896843;29;20475;-81
2023/12/22 04:01:04;;;;;;;3.42;1.00;;;;;;;-142.57;45.49;57457.25;4905774;29;20047;-81
2023/12/22 04:03:30;;;;;;;1.13;0.73;;;;;;;-142.57;44.68;57461.28;4911350;29;20191;-82
2023/12/22 04:05:55;;;;;;;1.30;0.90;;;;;;;-142.57;44.73;57461.28;4893479;29;20120;-78
2023/12/22 04:08:23;;;;;;;3.72;1.23;;;;;;;-142.57;44.12;57475.44;4902341;29;20031;-80
2023/12/22 04:10:49;;;;;;;1.58;0.93;;;;;;;-142.57;42.91;57499.72;4897945;28;20062;-82
2023/12/22 04:13:14;;;;;;;1.52;0.75;;;;;;;-142.57;39.86;57536.09;4889485;29;20030;-81
2023/12/22 04:15:40;;;;;;;2.08;1.13;;;;;;;-142.57;38.92;57501.72;4893371;29;20047;-81
2023/12/22 04:18:06;;;;;;;8.23;1.20;;;;;;;-142.57;38.90;57477.47;4923248;28;20054;-80
2023/12/22 04:20:31;;;;;;;1.75;0.90;;;;;;;-142.57;38.55;57501.72;4947414;29;20038;-79
2023/12/22 04:22:57;;;;;;;1.92;1.10;;;;;;;-142.57;38.51;57521.94;4934794;28;20039;-81
2023/12/22 04:25:24;;;;;;;3.00;0.77;;;;;;;-142.57;38.55;57491.63;4894100;29;20035;-81
2023/12/22 04:27:50;;;;;;;1.67;1.10;;;;;;;-142.57;38.51;57426.94;4892248;28;20043;-79
2023/12/22 04:30:15;;;;;;;6.28;1.33;;;;;;;-142.57;38.68;57455.22;4887375;28;20050;-79
2023/12/22 04:32:41;;;;;;;2.78;0.98;;;;;;;-142.57;38.14;57465.34;4896734;29;20122;-82
2023/12/22 04:35:07;;;;;;;4.88;1.05;;;;;;;-142.57;37.64;57493.63;4944394;29;20545;-80
2023/12/22 04:37:33;;;;;;;2.22;1.02;;;;;;;-142.57;37.48;57475.44;4951926;28;20027;-80
2023/12/22 04:39:58;;;;;;;3.33;1.02;;;;;;;-142.57;37.45;57479.50;4952102;29;20142;-80
2023/12/22 04:42:25;;;;;;;2.22;1.05;;;;;;;-142.57;36.96;57485.56;4927860;29;20537;-79
2023/12/22 04:44:53;;;;;;;2.42;0.90;;;;;;;-142.57;36.78;57463.31;4887826;29;20045;-80
2023/12/22 04:47:19;;;;;;;2.78;1.05;;;;;;;-142.57;36.37;57517.91;4887873;28;20876;-80
2023/12/22 04:49:44;;;;;;;5.78;1.08;;;;;;;-142.57;36.28;57544.19;4875383;29;20797;-80
2023/12/22 04:52:13;;;;;;;3.60;1.27;;;;;;;-142.57;36.12;57501.72;4935219;29;20039;-79
2023/12/22 04:54:41;;;;;;;2.10;1.10;;;;;;;-142.57;35.86;57499.72;4950828;29;20039;-80
2023/12/22 04:57:06;;;;;;;6.32;1.05;;;;;;;-142.57;35.79;57519.91;4955160;29;20038;-80
2023/12/22 04:59:32;;;;;;;3.80;1.00;;;;;;;-142.57;35.67;57544.19;4945624;28;20070;-81
2023/12/22 05:02:01;;;;;;;2.53;1.30;;;;;;;-142.57;35.16;57528.00;4948255;29;20059;-82
2023/12/22 05:04:26;;;;;;;1.65;0.80;;;;;;;-142.57;35.16;57544.19;4931619;29;20038;-81
2023/12/22 05:06:52;;;;;;;2.60;1.10;;;;;;;-142.57;35.02;57525.97;4946115;29;20174;-81
2023/12/22 05:09:17;;;;;;;4.53;0.90;;;;;;;-142.57;35.13;57542.16;4954747;29;20038;-83
2023/12/22 05:11:43;;;;;;;10.88;1.30;;;;;;;-142.57;35.00;57509.81;4951672;29;20046;-79
2023/12/22 05:14:09;;;;;;;3.08;1.10;;;;;;;-142.57;35.03;57532.06;4892729;29;20513;-78
2023/12/22 05:16:35;;;;;;;3.35;0.98;;;;;;;-142.57;34.76;57491.63;4876881;29;21342;-80
2023/12/22 05:19:01;;;;;;;6.47;1.10;;;;;;;-142.57;34.71;57499.72;4890932;29;20039;-82
2023/12/22 05:21:27;;;;;;;7.25;1.50;;;;;;;-142.57;35.17;57437.03;4899900;29;22078;-83
2023/12/22 05:23:53;;;;;;;5.65;1.20;;;;;;;-142.57;34.90;57475.44;4951343;29;20665;-80
2023/12/22 05:26:20;;;;;;;7.18;1.15;;;;;;;-142.57;34.92;57473.44;4950583;29;20038;-80
2023/12/22 05:28:49;;;;;;;5.90;1.30;;;;;;;-142.57;34.94;57435.03;4948189;29;20041;-79
2023/12/22 05:31:16;;;;;;;2.60;1.00;;;;;;;-142.57;34.62;57495.66;4947175;29;20397;-82
2023/12/22 05:33:42;;;;;;;9.95;1.30;;;;;;;-142.57;34.46;57481.50;4929408;29;20031;-81
2023/12/22 05:36:08;;;;;;;2.67;0.90;;;;;;;-142.57;34.36;57459.28;4951290;29;20050;-82
2023/12/22 05:38:38;;;;;;;8.63;1.33;;;;;;;-142.57;34.27;57501.72;4950255;29;20035;-83
2023/12/22 05:41:05;;;;;;;6.00;1.17;;;;;;;-142.57;34.28;57495.66;4952488;29;20031;-81
2023/12/22 05:43:30;;;;;;;4.65;1.40;;;;;;;-142.57;34.19;57475.44;4931956;29;20070;-84
2023/12/22 05:45:56;;;;;;;4.55;1.30;;;;;;;-142.57;34.30;57465.34;4895529;29;20126;-85
2023/12/22 05:48:22;;;;;;;2.67;1.23;;;;;;;-142.57;34.48;57437.03;4896583;29;20023;-84
2023/12/22 05:50:53;;;;;;;5.32;1.27;;;;;;;-142.57;34.39;57406.72;4894975;29;20186;-82
2023/12/22 05:53:18;;;;;;;6.57;0.90;;;;;;;-142.57;34.38;57426.94;4883841;29;20522;-84
2023/12/22 05:55:44;;;;;;;3.50;1.00;;;;;;;-142.57;34.19;57435.03;4915476;29;20038;-81
2023/12/22 05:58:09;;;;;;;6.53;1.20;;;;;;;-142.57;34.03;57475.44;4911273;29;20078;-82
2023/12/22 06:00:35;;;;;;;8.27;1.05;;;;;;;-142.57;33.72;57467.38;4943094;29;20114;-81
2023/12/22 06:03:01;;;;;;;2.45;1.02;;;;;;;-142.57;33.46;57501.72;4928092;29;20069;-84
2023/12/22 06:05:27;;;;;;;4.70;1.10;;;;;;;-142.57;33.70;57418.84;4949425;29;20374;-82
2023/12/22 06:07:53;;;;;;;5.43;1.50;;;;;;;-142.57;33.34;57503.75;4947764;29;20477;-83
2023/12/22 06:10:19;;;;;;;4.50;1.40;;;;;;;-142.57;32.90;57572.47;4900782;29;20031;-81
2023/12/22 06:12:44;;;;;;;2.97;1.05;;;;;;;-142.57;32.67;57578.53;4897000;28;20652;-84
2023/12/22 06:15:10;;;;;;;2.28;1.00;;;;;;;-142.57;32.54;57556.31;4898467;28;20031;-85
2023/12/22 06:17:35;;;;;;;4.55;1.50;;;;;;;-142.57;32.56;57572.47;4898466;28;20090;-85
2023/12/22 06:20:01;;;;;;;2.65;0.80;;;;;;;-142.57;32.40;57592.69;4936511;29;20067;-77
2023/12/22 06:22:29;;;;;;;1.30;0.88;;;;;;;-142.57;32.37;57544.19;4929808;29;20031;-78
2023/12/22 06:24:55;;;;;;;5.05;0.90;;;;;;;-142.57;32.37;57560.34;4917090;29;20061;-81
2023/12/22 06:27:20;;;;;;;5.88;1.02;;;;;;;-142.57;32.24;57530.03;4893207;29;20039;-79
2023/12/22 06:29:46;;;;;;;3.47;0.95;;;;;;;-142.57;32.18;57570.47;4894994;29;21749;-80
2023/12/22 06:32:12;;;;;;;5.03;1.20;;;;;;;-142.57;32.15;57546.19;4894038;29;20053;-79
2023/12/22 06:34:37;;;;;;;2.33;1.10;;;;;;;-142.57;31.98;57612.91;4920401;28;20045;-84
2023/12/22 06:37:03;;;;;;;2.95;0.88;;;;;;;-142.57;32.10;57594.72;4949308;28;21345;-82
2023/12/22 06:39:28;;;;;;;5.47;0.80;;;;;;;-142.57;32.13;57544.19;4953888;29;20082;-83
2023/12/22 06:41:54;;;;;;;3.55;1.05;;;;;;;-142.57;32.03;57580.56;4956566;29;20035;-84
2023/12/22 06:44:20;;;;;;;2.55;1.10;;;;;;;-142.57;32.11;57560.34;4957061;29;20457;-85
2023/12/22 06:46:45;;;;;;;1.90;1.02;;;;;;;-142.57;32.17;57534.06;4896643;29;20503;-79
2023/12/22 06:49:11;;;;;;;2.28;0.90;;;;;;;-142.57;32.19;57554.28;4893783;29;20062;-80
2023/12/22 06:51:36;;;;;;;2.55;0.93;;;;;;;-142.57;32.24;57523.97;4893739;28;20050;-79
2023/12/22 06:54:04;;;;;;;11.15;1.30;;;;;;;-142.57;32.08;57578.53;4891616;29;20047;-81
2023/12/22 06:56:34;;;;;;;7.80;1.13;;;;;;;-142.57;32.12;57574.50;4893313;28;20043;-88
2023/12/22 06:58:59;;;;;;;6.63;1.05;;;;;;;-142.57;32.45;57517.91;4896474;29;20023;-85
2023/12/22 07:01:34;;;;;;;9.45;1.42;;;;;;;-142.57;32.47;57513.84;4898667;28;20522;-80
2023/12/22 07:04:01;;;;;;;6.20;1.05;;;;;;;-142.57;32.31;57558.31;4906153;29;20031;-84
2023/12/22 07:06:29;;;;;;;1.75;0.80;;;;;;;-142.57;32.26;57610.88;4911768;28;20039;-80
2023/12/22 07:09:20;;;;;;;2.63;0.75;;;;;;;-142.57;32.19;57728.13;4912725;28;22045;-84
2023/12/22 07:11:54;;;;;;;5.20;0.95;;;;;;;-142.57;31.88;57768.56;4891009;29;21488;-80
2023/12/22 07:14:19;;;;;;;5.05;1.02;;;;;;;-142.57;31.77;57829.22;4897458;29;20031;-81
2023/12/22 07:16:45;;;;;;;3.03;0.82;;;;;;;-142.57;31.68;57883.81;4893299;29;20046;-80
2023/12/22 07:19:14;;;;;;;1.30;0.70;;;;;;;-142.57;31.55;57956.56;4897264;29;20039;-79
2023/12/22 07:21:40;;;;;;;4.43;0.95;;;;;;;-142.57;31.01;58081.94;4896377;28;20050;-81
2023/12/22 07:24:06;;;;;;;1.60;0.80;;;;;;;-142.57;30.54;58284.09;4892031;28;20047;-79
2023/12/22 07:26:32;;;;;;;5.40;1.00;;;;;;;-142.57;29.96;58518.66;4906828;22;20045;-77
2023/12/22 07:28:59;;;;;;;3.08;0.80;;;;;;;-142.57;29.44;58502.47;4903976;28;20461;-80
2023/12/22 07:31:25;;;;;;;3.33;0.57;;;;;;;-142.57;29.13;58589.41;4916468;28;20269;-81
2023/12/22 07:33:51;;;;;;;13.20;0.77;;;;;;;-142.57;29.54;58672.31;4975208;28;20052;-82
2023/12/22 07:36:18;;;;;;;2.63;0.85;;;;;;;-142.57;28.42;58919.00;4955609;28;20027;-80
2023/12/22 07:38:44;;;;;;;2.85;0.90;;;;;;;-142.57;27.82;59068.66;4929779;28;22464;-78
2023/12/22 07:41:10;;;;;;;3.63;0.70;;;;;;;-142.57;28.08;59179.88;4912775;28;20034;-80
2023/12/22 07:43:36;;;;;;;1.30;0.68;;;;;;;-142.57;27.23;59434.69;4911190;28;20035;-82
2023/12/22 07:46:01;;;;;;;4.50;0.95;;;;;;;-142.57;27.17;59529.75;4897543;28;20054;-82
2023/12/22 07:48:27;;;;;;;2.25;0.80;;;;;;;-142.57;26.74;59869.53;4962578;28;20045;-80
2023/12/22 07:50:54;;;;;;;3.03;0.80;;;;;;;-142.57;26.37;59661.22;4972178;28;20034;-80
2023/12/22 07:53:21;;;;;;;4.25;0.82;;;;;;;-142.57;26.93;59525.72;4975142;28;20398;-81
2023/12/22 07:55:46;;;;;;;2.25;0.80;;;;;;;-142.57;27.22;59359.88;4920675;28;20038;-80
2023/12/22 07:58:13;;;;;;;2.67;0.77;;;;;;;-142.57;28.12;58902.84;4915246;28;20066;-81
2023/12/22 08:00:38;;;;;;;4.78;0.77;;;;;;;-142.57;28.51;58720.84;4894949;28;20030;-81
2023/12/22 08:03:04;;;;;;;2.05;0.70;;;;;;;-142.57;28.86;58597.50;4911087;28;20430;-78
2023/12/22 08:05:30;;;;;;;7.20;0.65;;;;;;;-142.57;29.09;58387.22;4911477;28;20046;-81
2023/12/22 08:07:56;;;;;;;5.10;0.73;;;;;;;-142.57;29.40;58324.53;4910653;28;20142;-81
2023/12/22 08:10:21;;;;;;;4.03;0.60;;;;;;;-142.57;29.98;58183.00;4913150;28;20047;-80
2023/12/22 08:12:47;;;;;;;1.98;0.60;;;;;;;-142.57;30.43;58138.53;4909063;28;20047;-78
2023/12/22 08:15:12;;;;;;;5.47;0.50;;;;;;;-142.57;30.52;58124.38;4912852;28;22202;-79
2023/12/22 08:17:49;;;;;;;2.17;0.60;;;;;;;-142.57;30.56;58108.22;4892876;28;20055;-81
2023/12/22 08:20:19;;;;;;;7.03;0.52;;;;;;;-142.57;30.85;58049.56;4912373;28;21799;-77
2023/12/22 08:22:46;;;;;;;4.88;0.75;;;;;;;-142.57;31.10;57980.84;4911165;28;20074;-80
2023/12/22 08:25:11;;;;;;;1.50;0.70;;;;;;;-142.57;31.23;58009.13;4949707;28;20039;-81
2023/12/22 08:27:37;;;;;;;1.77;0.60;;;;;;;-142.57;31.25;58017.22;4963338;28;20129;-86
2023/12/22 08:30:03;;;;;;;2.33;0.57;;;;;;;-142.57;31.25;58047.56;4972737;28;20068;-82
2023/12/22 08:32:29;;;;;;;2.47;0.60;;;;;;;-142.57;31.21;58031.38;4975014;28;20034;-84
2023/12/22 08:34:54;;;;;;;3.30;0.60;;;;;;;-142.57;31.38;58049.56;4938835;28;20035;-82
2023/12/22 08:37:20;;;;;;;3.50;0.70;;;;;;;-142.57;31.44;58047.56;4953356;28;20042;-80
2023/12/22 08:39:45;;;;;;;0.98;0.40;;;;;;;-142.57;31.21;58053.63;4948357;28;20115;-81
2023/12/22 08:42:12;;;;;;;1.55;0.43;;;;;;;-142.57;31.31;58037.44;4972801;28;20030;-79
2023/12/22 08:44:37;;;;;;;7.57;0.90;;;;;;;-142.57;31.25;58142.56;4966716;28;20438;-79
2023/12/22 08:47:03;;;;;;;6.35;0.70;;;;;;;-142.57;30.99;58085.97;4974673;28;20035;-81
2023/12/22 08:49:28;;;;;;;2.03;0.60;;;;;;;-142.57;30.80;58219.41;4971910;28;20039;-81
2023/12/22 08:51:54;;;;;;;3.95;0.70;;;;;;;-142.57;31.05;58166.84;4972936;28;20030;-80
2023/12/22 08:54:19;;;;;;;2.78;0.60;;;;;;;-142.57;31.04;58225.47;4966985;28;20023;-78
2023/12/22 08:56:45;;;;;;;7.22;0.82;;;;;;;-142.57;31.25;58166.84;4958318;28;20111;-78
2023/12/22 08:59:12;;;;;;;4.10;0.60;;;;;;;-142.57;31.44;58187.06;4950083;28;20031;-81
2023/12/22 09:01:37;;;;;;;1.70;0.50;;;;;;;-142.57;31.19;58162.78;4948457;28;20019;-79
2023/12/22 09:04:03;;;;;;;1.95;0.70;;;;;;;-142.57;31.22;58096.06;4967854;28;20090;-80
2023/12/22 09:06:28;;;;;;;5.60;0.80;;;;;;;-142.57;31.05;58227.50;4971446;28;20027;-82
2023/12/22 09:08:54;;;;;;;2.85;0.70;;;;;;;-142.57;31.06;58142.56;4974088;28;20556;-82
2023/12/22 09:11:20;;;;;;;2.17;0.80;;;;;;;-142.57;30.99;58227.50;4917457;28;20046;-81
2023/12/22 09:13:46;;;;;;;3.30;0.50;;;;;;;-142.57;31.03;58176.94;4910232;28;20059;-79
2023/12/22 09:16:14;;;;;;;1.77;0.60;;;;;;;-142.57;31.44;58144.59;4895325;28;20058;-79
2023/12/22 09:18:40;;;;;;;2.30;0.43;;;;;;;-142.57;31.12;58187.06;4911705;28;20039;-78
2023/12/22 09:21:06;;;;;;;4.25;0.50;;;;;;;-142.57;31.25;58150.66;4922460;28;20041;-81
2023/12/22 09:23:32;;;;;;;4.10;0.75;;;;;;;-142.57;31.53;58118.31;4914123;28;20045;-81
2023/12/22 09:25:58;;;;;;;3.35;0.85;;;;;;;-142.57;31.61;58162.78;4912963;28;20031;-80
2023/12/22 09:28:25;;;;;;;9.40;0.90;;;;;;;-142.57;31.93;58128.44;4911723;28;20038;-82
2023/12/22 09:30:51;;;;;;;2.50;0.80;;;;;;;-142.57;31.96;58138.53;4910653;28;22677;-80
2023/12/22 09:33:16;;;;;;;10.73;1.00;;;;;;;-142.57;31.99;58150.66;4906900;28;20103;-80
2023/12/22 09:35:43;;;;;;;3.35;0.68;;;;;;;-142.57;31.84;58126.41;4970357;28;20037;-78
2023/12/22 09:38:10;;;;;;;5.25;0.90;;;;;;;-142.57;31.80;58201.22;4938829;28;20043;-84
2023/12/22 09:40:36;;;;;;;5.25;0.80;;;;;;;-142.57;32.29;58174.94;4969404;28;20125;-83
2023/12/22 09:43:02;;;;;;;0.90;0.45;;;;;;;-142.57;32.32;58150.66;4942649;28;20457;-84
2023/12/22 09:45:30;;;;;;;12.88;0.93;;;;;;;-142.57;32.44;58142.56;4908989;28;20417;-76
2023/12/22 09:47:58;;;;;;;5.07;0.63;;;;;;;-142.57;32.32;58187.06;4911542;28;20073;-78
2023/12/22 09:50:26;;;;;;;1.67;0.70;;;;;;;-142.57;32.79;58170.88;4913789;28;20046;-81
2023/12/22 09:52:51;;;;;;;3.17;0.80;;;;;;;-142.57;32.99;58142.56;4928700;28;20066;-79
2023/12/22 09:55:17;;;;;;;8.30;1.10;;;;;;;-142.57;33.09;58203.22;4968639;28;20069;-83
2023/12/22 09:57:45;;;;;;;1.98;0.50;;;;;;;-142.57;33.27;58231.53;4952235;28;20043;-79
2023/12/22 10:00:12;;;;;;;4.60;0.60;;;;;;;-142.57;33.61;58211.31;4968688;28;20051;-82
2023/12/22 10:02:39;;;;;;;4.03;0.60;;;;;;;-142.57;33.69;58255.78;4906915;28;20466;-81
2023/12/22 10:05:04;;;;;;;9.65;1.08;;;;;;;-142.57;33.25;58328.59;4892776;28;20069;-82
2023/12/22 10:07:30;;;;;;;4.55;0.68;;;;;;;-142.57;32.90;58348.81;4908562;28;20043;-80
2023/12/22 10:09:57;;;;;;;5.10;0.80;;;;;;;-142.57;32.81;58320.50;4896606;28;20057;-80
2023/12/22 10:12:24;;;;;;;7.18;0.88;;;;;;;-142.57;33.12;58263.88;4910358;28;20438;-80
2023/12/22 10:14:51;;;;;;;7.95;0.80;;;;;;;-142.57;33.09;58314.44;4908146;28;20046;-80
2023/12/22 10:17:17;;;;;;;4.00;0.95;;;;;;;-142.57;33.04;58344.75;4911273;28;20043;-77
2023/12/22 10:19:43;;;;;;;5.40;0.70;;;;;;;-142.57;32.98;58352.84;4909201;28;20053;-79
2023/12/22 10:22:08;;;;;;;9.70;0.68;;;;;;;-142.57;32.71;58324.53;4909389;28;20047;-83
2023/12/22 10:24:47;;;;;;;3.17;0.60;;;;;;;-142.57;32.99;58292.19;4909816;28;20425;-82
2023/12/22 10:27:22;;;;;;;4.65;0.82;;;;;;;-142.57;33.13;58259.84;4909559;28;20093;-80
2023/12/22 10:29:56;;;;;;;6.60;0.70;;;;;;;-142.57;33.84;58239.63;4912877;28;20062;-82
2023/12/22 10:32:22;;;;;;;5.65;0.43;;;;;;;-142.57;33.72;58263.88;4917743;28;20039;-81
2023/12/22 10:34:48;;;;;;;4.03;0.55;;;;;;;-142.57;34.40;58235.56;4969896;28;20031;-82
2023/12/22 10:37:14;;;;;;;5.10;0.65;;;;;;;-142.57;34.29;58280.06;4941713;28;20716;-80
2023/12/22 10:39:39;;;;;;;2.50;0.30;;;;;;;-142.57;34.58;58251.75;4912590;28;20039;-80
2023/12/22 10:42:05;;;;;;;9.10;0.57;;;;;;;-142.57;34.43;58280.06;4907135;28;20042;-81
2023/12/22 10:44:31;;;;;;;1.60;0.55;;;;;;;-142.57;34.73;58235.56;4911776;28;20133;-78
2023/12/22 10:46:57;;;;;;;9.82;0.75;;;;;;;-142.57;35.07;58233.56;4896735;28;20740;-79
2023/12/22 10:49:24;;;;;;;2.22;0.50;;;;;;;-142.57;35.26;58267.94;4973908;28;20394;-77
2023/12/22 10:51:53;;;;;;;4.80;0.60;;;;;;;-142.57;35.26;58280.06;4950348;28;20034;-81
2023/12/22 10:54:19;;;;;;;3.80;0.35;;;;;;;-142.57;35.52;58280.06;4969307;28;20039;-77
2023/12/22 10:56:46;;;;;;;0.55;0.47;;;;;;;-142.57;35.54;58312.41;4950658;28;20385;-81
2023/12/22 10:59:12;;;;;;;2.97;0.60;;;;;;;-142.57;35.56;58296.22;4896757;28;21301;-80
2023/12/22 11:01:38;;;;;;;3.05;0.40;;;;;;;-142.57;35.52;58282.09;4913944;28;20037;-82
2023/12/22 11:04:09;;;;;;;1.00;0.40;;;;;;;-142.57;34.77;58304.31;4914987;28;20985;-80
2023/12/22 11:06:39;;;;;;;3.97;1.00;;;;;;;-142.57;35.13;58304.31;4945462;28;20085;-82
2023/12/22 11:09:09;;;;;;;1.33;0.40;;;;;;;-142.57;35.33;58302.31;4954967;28;20086;-81
2023/12/22 11:11:36;;;;;;;0.60;0.30;;;;;;;-142.57;35.51;58288.16;4966109;28;20049;-83